Time;durP1;ratioP1;P1;durP2;ratioP2;P2;SDS_P1;SDS_P2;PMS_P1;PMS_P2;Temp;Humidity;BMP_temperature;BMP_pressure;BME280_temperature;BME280_humidity;BME280_pressure;Samples;Min_cycle;Max_cycle;Signal;HPM_P1;HPM_P2
2024/03/16 00:04:37;;;;;;;2.15;0.70;;;22.90;52.60;;;;;;10383566;28;20573;-53
2024/03/16 00:09:39;;;;;;;2.22;0.90;;;22.70;53.10;;;;;;10393615;28;20563;-52
2024/03/16 00:14:40;;;;;;;1.65;0.90;;;22.60;53.10;;;;;;10392101;28;20507;-56
2024/03/16 00:19:42;;;;;;;1.10;0.68;;;22.80;52.80;;;;;;10409601;28;20699;-51
2024/03/16 00:24:44;;;;;;;2.15;0.80;;;22.80;52.40;;;;;;10380587;28;20471;-51
2024/03/16 00:29:46;;;;;;;1.17;0.70;;;22.80;52.60;;;;;;10391139;28;20145;-53
2024/03/16 00:34:48;;;;;;;2.00;0.80;;;22.80;52.50;;;;;;10379678;28;20151;-56
2024/03/16 00:39:50;;;;;;;0.70;0.60;;;22.80;52.40;;;;;;10409169;28;20132;-55
2024/03/16 00:44:54;;;;;;;0.98;0.70;;;22.70;52.50;;;;;;10384273;28;20041;-55
2024/03/16 00:49:55;;;;;;;0.85;0.70;;;22.70;52.60;;;;;;10379030;28;20129;-52
2024/03/16 00:54:57;;;;;;;1.15;0.70;;;22.80;52.10;;;;;;10402253;28;20133;-52
2024/03/16 00:59:59;;;;;;;1.73;0.80;;;22.60;52.50;;;;;;10408527;28;20128;-55
2024/03/16 01:05:01;;;;;;;0.98;0.60;;;22.70;52.30;;;;;;10382945;28;20155;-57
2024/03/16 01:10:03;;;;;;;1.13;0.60;;;22.70;52.10;;;;;;10387502;28;20053;-59
2024/03/16 01:15:05;;;;;;;1.52;0.60;;;22.80;51.90;;;;;;10387585;28;20053;-52
2024/03/16 01:20:09;;;;;;;1.15;0.73;;;22.70;51.90;;;;;;10386869;28;20045;-59
2024/03/16 01:25:12;;;;;;;1.30;0.75;;;22.70;52.10;;;;;;10391359;28;20041;-55
2024/03/16 01:30:15;;;;;;;1.52;0.60;;;22.80;51.70;;;;;;10372238;28;20045;-57
2024/03/16 01:35:17;;;;;;;0.88;0.65;;;22.80;51.60;;;;;;10395135;28;20053;-56
2024/03/16 01:40:24;;;;;;;1.13;0.70;;;22.60;52.00;;;;;;10399411;28;20116;-57
2024/03/16 01:45:26;;;;;;;1.35;0.77;;;22.70;51.60;;;;;;10422906;28;20049;-51
2024/03/16 01:50:27;;;;;;;1.08;0.80;;;22.70;51.50;;;;;;10392975;28;20125;-52
2024/03/16 01:55:29;;;;;;;1.38;0.70;;;22.60;51.80;;;;;;10386871;28;20128;-55
2024/03/16 02:00:31;;;;;;;1.45;0.75;;;22.70;51.80;;;;;;10391845;28;20128;-62
2024/03/16 02:05:36;;;;;;;1.52;0.60;;;22.60;51.70;;;;;;10383865;28;20137;-63
2024/03/16 02:10:37;;;;;;;1.23;0.70;;;22.50;52.10;;;;;;10392868;28;20966;-62
2024/03/16 02:15:39;;;;;;;0.75;0.60;;;22.60;51.90;;;;;;10395386;28;20060;-63
2024/03/16 02:20:41;;;;;;;2.08;0.80;;;22.60;51.70;;;;;;10392394;28;20053;-63
2024/03/16 02:25:44;;;;;;;0.93;0.77;;;22.50;51.80;;;;;;10394812;28;20427;-62
2024/03/16 02:30:45;;;;;;;1.20;0.70;;;22.50;51.80;;;;;;10380403;28;20056;-62
2024/03/16 02:35:47;;;;;;;0.70;0.63;;;22.50;51.80;;;;;;10378885;28;20048;-63
2024/03/16 02:40:49;;;;;;;1.40;0.80;;;22.40;51.90;;;;;;10382886;28;20050;-61
2024/03/16 02:45:52;;;;;;;0.73;0.70;;;22.40;52.10;;;;;;10381920;28;20598;-62
2024/03/16 02:50:54;;;;;;;1.05;0.75;;;22.30;52.20;;;;;;10399289;28;20049;-62
2024/03/16 02:55:55;;;;;;;1.23;0.80;;;22.30;52.10;;;;;;10382928;28;20052;-63
2024/03/16 03:00:57;;;;;;;1.85;0.90;;;22.40;51.80;;;;;;10390260;28;20045;-52
2024/03/16 03:05:59;;;;;;;2.25;0.90;;;22.40;51.70;;;;;;10395454;28;20041;-53
2024/03/16 03:11:01;;;;;;;1.38;0.60;;;22.30;51.90;;;;;;10389653;28;20124;-52
2024/03/16 03:16:03;;;;;;;1.83;0.85;;;22.30;51.70;;;;;;10427472;28;20419;-58
2024/03/16 03:21:05;;;;;;;0.95;0.70;;;22.30;51.90;;;;;;10410996;28;20458;-56
2024/03/16 03:26:08;;;;;;;2.83;0.77;;;22.20;51.90;;;;;;10391744;28;20064;-52
2024/03/16 03:31:10;;;;;;;1.05;0.70;;;22.20;52.00;;;;;;10392110;28;20072;-53
2024/03/16 03:36:11;;;;;;;1.08;0.73;;;22.10;52.20;;;;;;10398276;28;20495;-56
2024/03/16 03:41:13;;;;;;;1.63;0.80;;;22.20;51.90;;;;;;10394159;28;20048;-51
2024/03/16 03:46:29;;;;;;;0.80;0.60;;;22.20;51.70;;;;;;10370090;28;20516;-53
2024/03/16 03:51:30;;;;;;;1.00;0.80;;;22.10;51.90;;;;;;10391316;28;20396;-52
2024/03/16 03:56:32;;;;;;;0.80;0.63;;;22.10;51.90;;;;;;10393308;28;20536;-54
2024/03/16 04:01:34;;;;;;;0.73;0.60;;;22.20;51.70;;;;;;10408945;28;20045;-56
2024/03/16 04:06:36;;;;;;;1.20;0.80;;;21.80;52.80;;;;;;10393524;28;20407;-55
2024/03/16 04:11:38;;;;;;;1.55;0.80;;;21.80;53.60;;;;;;10422444;28;20049;-58
2024/03/16 04:16:40;;;;;;;1.17;0.77;;;21.80;53.80;;;;;;10380362;28;20128;-59
2024/03/16 04:21:43;;;;;;;1.17;0.70;;;22.00;53.60;;;;;;10397051;28;20523;-59
2024/03/16 04:26:44;;;;;;;1.60;0.90;;;22.20;53.20;;;;;;10382108;28;20065;-58
2024/03/16 04:31:46;;;;;;;1.17;0.63;;;22.30;53.20;;;;;;10383125;28;20053;-59
2024/03/16 04:36:48;;;;;;;1.35;0.80;;;22.40;53.00;;;;;;10372985;28;20046;-58
2024/03/16 04:41:50;;;;;;;1.98;0.90;;;22.50;52.70;;;;;;10367540;28;20054;-59
2024/03/16 04:46:52;;;;;;;2.35;0.73;;;22.60;52.30;;;;;;10364354;28;20052;-58
2024/03/16 04:51:53;;;;;;;1.73;0.80;;;22.80;52.10;;;;;;10385151;28;20054;-59
2024/03/16 04:56:55;;;;;;;1.23;0.90;;;22.80;52.00;;;;;;10382467;28;20049;-60
2024/03/16 05:01:57;;;;;;;1.23;0.80;;;22.90;51.80;;;;;;10395321;28;20065;-59
2024/03/16 05:06:59;;;;;;;0.82;0.60;;;23.00;51.70;;;;;;10387530;28;20044;-59
2024/03/16 05:12:00;;;;;;;1.55;0.70;;;22.90;51.90;;;;;;10386963;28;20431;-59
2024/03/16 05:17:05;;;;;;;1.13;0.68;;;22.90;52.00;;;;;;10387486;28;20049;-58
2024/03/16 05:22:07;;;;;;;1.15;0.70;;;23.00;52.00;;;;;;10390539;28;20041;-59
2024/03/16 05:27:10;;;;;;;1.83;0.77;;;23.10;51.70;;;;;;10387592;28;20050;-59
2024/03/16 05:32:11;;;;;;;1.13;0.60;;;23.20;51.50;;;;;;10386313;28;20056;-59
2024/03/16 05:37:13;;;;;;;1.50;0.80;;;23.20;51.50;;;;;;10388971;28;20041;-60
2024/03/16 05:42:15;;;;;;;0.63;0.60;;;23.20;51.40;;;;;;10392251;28;20052;-60
2024/03/16 05:47:21;;;;;;;1.33;0.60;;;23.30;51.40;;;;;;10391351;28;20042;-59
2024/03/16 05:52:23;;;;;;;2.33;0.50;;;23.30;51.30;;;;;;10393794;28;20041;-60
2024/03/16 05:57:25;;;;;;;1.30;0.68;;;23.30;51.40;;;;;;10411284;28;20411;-57
2024/03/16 06:02:26;;;;;;;1.65;0.70;;;23.10;52.10;;;;;;10383889;28;20045;-58
2024/03/16 06:07:28;;;;;;;4.07;0.70;;;23.10;53.10;;;;;;10375889;28;20037;-59
2024/03/16 06:12:30;;;;;;;2.33;0.85;;;23.30;52.90;;;;;;10420082;28;20049;-57
2024/03/16 06:17:33;;;;;;;8.15;0.95;;;23.30;53.20;;;;;;10414233;28;20060;-58
2024/03/16 06:22:35;;;;;;;2.78;0.60;;;23.30;53.40;;;;;;10383694;28;20132;-57
2024/03/16 06:27:43;;;;;;;7.60;0.80;;;23.30;53.70;;;;;;10383872;28;20129;-59
2024/03/16 06:33:05;;;;;;;2.50;1.10;;;23.20;54.80;;;;;;10385515;28;20046;-61
2024/03/16 06:38:07;;;;;;;4.90;0.82;;;23.10;55.60;;;;;;10385979;28;20465;-62
2024/03/16 06:43:09;;;;;;;4.13;0.88;;;23.10;56.00;;;;;;10382483;28;20046;-63
2024/03/16 06:48:10;;;;;;;12.43;1.42;;;23.20;56.00;;;;;;10385706;28;20042;-62
2024/03/16 06:53:12;;;;;;;16.80;1.00;;;23.30;56.40;;;;;;10383993;28;20061;-61
2024/03/16 06:58:14;;;;;;;5.22;0.88;;;23.40;56.00;;;;;;10379678;28;20056;-61
2024/03/16 07:03:16;;;;;;;3.92;0.70;;;23.30;56.00;;;;;;10394564;28;20053;-61
2024/03/16 07:08:18;;;;;;;3.90;0.70;;;23.30;56.40;;;;;;10381637;28;20069;-62
2024/03/16 07:13:20;;;;;;;1.95;0.70;;;23.40;56.80;;;;;;10370199;28;20053;-62
2024/03/16 07:18:22;;;;;;;6.28;1.08;;;23.60;55.40;;;;;;10361011;28;20070;-62
2024/03/16 07:23:26;;;;;;;5.15;1.00;;;23.70;55.00;;;;;;10355208;28;20058;-59
2024/03/16 07:28:28;;;;;;;7.38;1.02;;;23.80;54.90;;;;;;10339807;28;20050;-59
2024/03/16 07:33:30;;;;;;;4.28;0.85;;;23.80;55.20;;;;;;10365274;28;20128;-61
2024/03/16 07:38:32;;;;;;;1.70;0.60;;;23.80;55.20;;;;;;10384394;28;20129;-59
2024/03/16 07:43:34;;;;;;;4.38;1.20;;;24.00;54.90;;;;;;10385387;28;20045;-59
2024/03/16 07:48:35;;;;;;;4.85;1.35;;;24.10;54.70;;;;;;10384147;28;20434;-59
2024/03/16 07:53:37;;;;;;;9.85;1.70;;;24.10;54.60;;;;;;10380625;28;20454;-55
2024/03/16 07:58:39;;;;;;;11.15;1.75;;;24.00;54.90;;;;;;10384033;28;20196;-52
2024/03/16 08:03:42;;;;;;;6.63;1.85;;;24.00;55.00;;;;;;10372787;28;20042;-58
2024/03/16 08:08:44;;;;;;;5.82;1.58;;;24.30;54.30;;;;;;10375819;28;20072;-56
2024/03/16 08:13:46;;;;;;;7.80;1.50;;;24.10;54.70;;;;;;10378480;28;20411;-59
2024/03/16 08:18:47;;;;;;;6.70;1.70;;;23.80;55.40;;;;;;10356507;28;20043;-59
2024/03/16 08:23:49;;;;;;;7.88;1.83;;;23.30;56.20;;;;;;10339412;28;20042;-58
2024/03/16 08:28:54;;;;;;;9.93;2.13;;;23.40;55.70;;;;;;10363328;28;20045;-55
2024/03/16 08:33:56;;;;;;;9.40;2.58;;;23.20;56.00;;;;;;10375922;28;20049;-55
2024/03/16 08:38:58;;;;;;;15.07;2.95;;;23.70;55.00;;;;;;10363493;28;20096;-55
2024/03/16 08:44:00;;;;;;;9.63;3.45;;;23.50;54.70;;;;;;10377583;28;20451;-60
2024/03/16 08:49:02;;;;;;;11.75;2.60;;;23.20;52.90;;;;;;10379270;28;20045;-58
2024/03/16 08:54:05;;;;;;;6.95;1.77;;;22.80;51.70;;;;;;10379069;28;20045;-60
2024/03/16 08:59:07;;;;;;;6.68;1.88;;;22.70;48.70;;;;;;10380954;28;20045;-60
2024/03/16 09:04:08;;;;;;;6.15;2.50;;;22.50;48.80;;;;;;10368280;28;20049;-59
2024/03/16 09:09:11;;;;;;;6.15;3.17;;;22.40;46.20;;;;;;10371732;28;20551;-60
2024/03/16 09:14:13;;;;;;;8.90;4.65;;;22.40;47.60;;;;;;10372039;28;20458;-60
2024/03/16 09:19:15;;;;;;;12.75;4.15;;;22.50;48.60;;;;;;10376454;28;20529;-61
2024/03/16 09:24:18;;;;;;;9.18;2.90;;;23.10;48.10;;;;;;10375853;28;20121;-60
2024/03/16 09:29:20;;;;;;;8.70;3.00;;;23.00;49.00;;;;;;10382277;28;20575;-58
2024/03/16 09:34:23;;;;;;;6.55;3.38;;;23.00;49.30;;;;;;10381611;28;20057;-59
2024/03/16 09:39:26;;;;;;;9.10;2.60;;;23.20;45.90;;;;;;10410197;28;20076;-58
2024/03/16 09:44:28;;;;;;;11.82;2.30;;;22.70;46.60;;;;;;10350416;28;20042;-60
2024/03/16 09:49:30;;;;;;;6.80;2.00;;;22.50;43.10;;;;;;10332983;28;20040;-60
2024/03/16 09:54:32;;;;;;;7.18;2.50;;;22.30;45.90;;;;;;10341159;28;20053;-61
2024/03/16 09:59:34;;;;;;;6.25;1.60;;;22.60;46.80;;;;;;10392235;28;20051;-60
2024/03/16 10:04:36;;;;;;;9.52;1.80;;;22.50;51.50;;;;;;10404229;28;20415;-60
2024/03/16 10:09:40;;;;;;;6.20;1.77;;;22.80;49.30;;;;;;10354167;28;20053;-61
2024/03/16 10:14:41;;;;;;;8.25;1.50;;;22.70;47.80;;;;;;10349671;28;20070;-61
2024/03/16 10:19:43;;;;;;;6.30;1.50;;;22.50;45.80;;;;;;10378396;28;20124;-61
2024/03/16 10:24:45;;;;;;;6.30;1.38;;;22.30;46.50;;;;;;10383428;28;20057;-62
2024/03/16 10:29:47;;;;;;;5.57;1.30;;;22.40;47.40;;;;;;10374527;28;20046;-61
2024/03/16 10:34:49;;;;;;;4.55;1.25;;;22.50;48.30;;;;;;10378836;28;20060;-62
2024/03/16 10:39:51;;;;;;;5.00;1.40;;;22.50;48.30;;;;;;10399123;28;20046;-63
2024/03/16 10:44:53;;;;;;;11.52;1.67;;;22.50;48.50;;;;;;10403304;28;20042;-62
2024/03/16 10:49:55;;;;;;;3.30;1.10;;;22.50;48.80;;;;;;10395902;28;20042;-62
2024/03/16 10:54:57;;;;;;;8.82;1.38;;;22.80;48.80;;;;;;10380654;28;20086;-63
2024/03/16 10:59:59;;;;;;;5.15;1.30;;;22.80;48.70;;;;;;10379968;28;20041;-64
2024/03/16 11:05:01;;;;;;;10.50;1.38;;;22.70;49.30;;;;;;10378839;28;20046;-63
2024/03/16 11:10:03;;;;;;;5.10;1.20;;;22.90;48.70;;;;;;10392960;28;20030;-64
2024/03/16 11:15:33;;;;;;;6.30;1.40;;;22.70;48.80;;;;;;10382197;28;20046;-64
2024/03/16 11:20:38;;;;;;;5.30;1.05;;;23.30;47.90;;;;;;10357275;28;20130;-63
2024/03/16 11:25:40;;;;;;;5.05;1.23;;;22.90;48.00;;;;;;10379742;28;20431;-65
2024/03/16 11:30:42;;;;;;;5.72;1.60;;;22.70;48.70;;;;;;10373923;28;20227;-63
2024/03/16 11:35:44;;;;;;;7.63;1.65;;;22.60;48.20;;;;;;10370410;28;20140;-63
2024/03/16 11:40:47;;;;;;;5.10;1.40;;;22.70;48.70;;;;;;10372552;28;20080;-64
2024/03/16 11:45:49;;;;;;;8.30;1.35;;;23.10;48.40;;;;;;10372627;28;20049;-62
2024/03/16 11:50:51;;;;;;;10.48;1.38;;;23.20;48.20;;;;;;10393218;28;20054;-63
2024/03/16 11:55:53;;;;;;;8.05;1.52;;;23.30;48.20;;;;;;10380981;28;20053;-64
2024/03/16 12:00:57;;;;;;;10.38;1.40;;;23.30;48.40;;;;;;10375176;28;20060;-64
2024/03/16 12:05:58;;;;;;;5.82;1.38;;;23.30;48.60;;;;;;10375674;28;20045;-62
2024/03/16 12:11:01;;;;;;;6.68;1.55;;;23.40;48.70;;;;;;10386542;28;20061;-63
2024/03/16 12:16:03;;;;;;;4.30;1.40;;;23.50;48.90;;;;;;10382221;28;20049;-63
2024/03/16 12:21:05;;;;;;;6.72;1.42;;;23.50;48.90;;;;;;10380118;28;20055;-64
2024/03/16 12:26:09;;;;;;;6.18;1.63;;;23.30;49.40;;;;;;10384613;28;20057;-60
2024/03/16 12:31:11;;;;;;;5.05;1.40;;;23.40;49.30;;;;;;10387139;28;20045;-59
2024/03/16 12:36:13;;;;;;;4.00;1.10;;;23.40;49.10;;;;;;10383583;28;20075;-58
2024/03/16 12:41:15;;;;;;;5.03;1.55;;;23.40;49.30;;;;;;10377703;28;20067;-59
2024/03/16 12:46:16;;;;;;;2.75;1.10;;;23.40;49.10;;;;;;10391308;28;20046;-57
2024/03/16 12:51:19;;;;;;;4.25;1.08;;;23.40;49.20;;;;;;10381527;28;20050;-56
2024/03/16 12:56:21;;;;;;;4.22;1.25;;;23.30;49.20;;;;;;10377256;28;20050;-61
2024/03/16 13:01:25;;;;;;;3.70;1.35;;;23.30;49.30;;;;;;10376505;28;20522;-59
2024/03/16 13:06:27;;;;;;;3.83;1.10;;;23.50;48.80;;;;;;10370424;28;20664;-59
2024/03/16 13:11:29;;;;;;;3.20;1.27;;;23.60;48.50;;;;;;10375777;28;20626;-56
2024/03/16 13:16:32;;;;;;;2.83;1.20;;;23.70;48.40;;;;;;10380201;28;20046;-58
2024/03/16 13:21:35;;;;;;;3.47;1.10;;;23.60;48.40;;;;;;10383352;28;20053;-57
2024/03/16 13:26:37;;;;;;;4.05;1.20;;;23.60;49.00;;;;;;10400115;28;20145;-57
2024/03/16 13:31:38;;;;;;;4.00;1.13;;;23.60;48.50;;;;;;10385434;28;20060;-57
2024/03/16 13:36:40;;;;;;;2.95;0.90;;;23.40;48.70;;;;;;10392882;28;20049;-60
2024/03/16 13:41:42;;;;;;;3.28;1.10;;;23.40;48.70;;;;;;10392529;28;20046;-57
2024/03/16 13:46:44;;;;;;;2.80;1.15;;;23.30;49.00;;;;;;10388901;28;20046;-58
2024/03/16 13:51:46;;;;;;;2.50;1.00;;;23.20;49.50;;;;;;10389481;28;20059;-59
2024/03/16 13:56:47;;;;;;;2.40;1.20;;;23.20;49.70;;;;;;10379929;28;20045;-58
2024/03/16 14:01:50;;;;;;;2.63;0.90;;;23.20;49.70;;;;;;10386944;28;20056;-55
2024/03/16 14:06:53;;;;;;;1.77;0.98;;;23.20;49.70;;;;;;10390052;28;20046;-59
2024/03/16 14:11:55;;;;;;;1.95;0.98;;;23.40;49.50;;;;;;10383296;28;20041;-59
2024/03/16 14:16:57;;;;;;;2.22;1.00;;;23.50;49.40;;;;;;10377099;28;20080;-59
2024/03/16 14:21:59;;;;;;;2.50;0.95;;;23.60;49.10;;;;;;10371809;28;20048;-59
2024/03/16 14:27:01;;;;;;;3.40;1.10;;;23.60;49.00;;;;;;10388962;28;20046;-61
2024/03/16 14:32:04;;;;;;;2.15;1.10;;;23.70;49.00;;;;;;10397753;28;20179;-59
2024/03/16 14:37:06;;;;;;;2.40;1.00;;;23.80;48.70;;;;;;10404483;28;20046;-60
2024/03/16 14:42:12;;;;;;;2.83;1.15;;;23.80;48.60;;;;;;10400482;28;20045;-57
2024/03/16 14:47:14;;;;;;;4.28;1.15;;;23.90;48.50;;;;;;10384075;28;20056;-56
2024/03/16 14:52:16;;;;;;;3.28;1.00;;;24.00;48.40;;;;;;10386582;28;20049;-58
2024/03/16 14:57:23;;;;;;;2.30;1.02;;;24.50;47.10;;;;;;10390136;28;20693;-56
2024/03/16 15:02:24;;;;;;;2.47;0.90;;;24.80;46.60;;;;;;10399018;28;20152;-60
2024/03/16 15:07:26;;;;;;;3.35;1.05;;;25.10;45.70;;;;;;10382307;28;20046;-57
2024/03/16 15:12:28;;;;;;;3.45;1.00;;;24.80;46.20;;;;;;10399024;28;20141;-63
2024/03/16 15:17:31;;;;;;;3.63;1.17;;;24.80;46.30;;;;;;10403458;28;20131;-63
2024/03/16 15:22:33;;;;;;;2.28;0.93;;;24.90;45.80;;;;;;10403641;28;20054;-61
2024/03/16 15:27:55;;;;;;;2.95;0.90;;;25.20;45.60;;;;;;10393802;28;20509;-63
2024/03/16 15:32:56;;;;;;;1.75;1.10;;;25.10;45.60;;;;;;10387930;28;20062;-62
2024/03/16 15:37:58;;;;;;;2.20;0.88;;;24.90;46.10;;;;;;10369304;28;20049;-63
2024/03/16 15:43:00;;;;;;;3.25;1.20;;;24.90;45.60;;;;;;10376840;28;20064;-63
2024/03/16 15:48:02;;;;;;;3.45;1.10;;;25.00;45.60;;;;;;10388528;28;20047;-63
2024/03/16 15:53:04;;;;;;;2.08;0.95;;;25.20;45.30;;;;;;10395664;28;20060;-62
2024/03/16 15:58:05;;;;;;;2.47;0.90;;;25.20;45.30;;;;;;10396751;28;20144;-62
2024/03/16 16:03:07;;;;;;;2.10;1.10;;;25.30;45.20;;;;;;10389618;28;20060;-57
2024/03/16 16:08:10;;;;;;;3.15;1.13;;;25.20;45.20;;;;;;10385110;28;20045;-60
2024/03/16 16:13:19;;;;;;;2.42;0.90;;;25.00;45.40;;;;;;10384089;28;20053;-55
2024/03/16 16:18:20;;;;;;;4.95;1.20;;;24.90;45.60;;;;;;10384207;28;20108;-55
2024/03/16 16:23:22;;;;;;;6.32;1.35;;;24.70;44.70;;;;;;10388013;28;20050;-56
2024/03/16 16:28:24;;;;;;;9.07;2.17;;;24.80;45.60;;;;;;10418588;28;20073;-56
2024/03/16 16:33:26;;;;;;;13.75;2.60;;;24.30;47.40;;;;;;10416185;28;20055;-58
2024/03/16 16:38:28;;;;;;;24.33;2.55;;;24.60;47.10;;;;;;10382504;28;20042;-59
2024/03/16 16:43:30;;;;;;;11.38;2.85;;;24.30;47.30;;;;;;10394344;28;20069;-59
2024/03/16 16:48:31;;;;;;;10.68;2.58;;;24.00;48.70;;;;;;10399270;28;20042;-55
2024/03/16 16:53:33;;;;;;;8.20;2.03;;;24.00;39.40;;;;;;10394447;28;20053;-55
2024/03/16 16:58:35;;;;;;;10.35;2.03;;;23.70;35.60;;;;;;10376417;28;20047;-62
2024/03/16 17:03:37;;;;;;;13.55;2.20;;;23.20;33.70;;;;;;10393298;28;20050;-56
2024/03/16 17:08:39;;;;;;;9.32;2.10;;;23.30;35.30;;;;;;10394686;28;20500;-55
2024/03/16 17:13:41;;;;;;;10.93;2.63;;;23.20;36.30;;;;;;10391026;28;20565;-54
2024/03/16 17:18:43;;;;;;;10.88;2.20;;;23.10;36.90;;;;;;10407746;28;20041;-59
2024/03/16 17:23:45;;;;;;;9.23;2.20;;;23.10;36.20;;;;;;10410802;28;20064;-59
2024/03/16 17:28:46;;;;;;;10.45;2.10;;;22.90;36.20;;;;;;10394327;28;20064;-57
2024/03/16 17:33:48;;;;;;;11.98;2.42;;;22.70;35.40;;;;;;10371459;28;20052;-54
2024/03/16 17:38:50;;;;;;;10.23;2.53;;;22.70;35.70;;;;;;10366847;28;20064;-57
2024/03/16 17:43:53;;;;;;;17.75;3.50;;;22.70;34.80;;;;;;10347948;28;20053;-55
2024/03/16 17:48:55;;;;;;;11.23;2.95;;;22.60;35.00;;;;;;10377641;28;20049;-53
2024/03/16 17:53:57;;;;;;;19.90;3.20;;;22.80;36.40;;;;;;10388738;28;20049;-57
2024/03/16 17:58:59;;;;;;;15.25;2.97;;;23.00;38.10;;;;;;10367895;28;20038;-57
2024/03/16 18:04:00;;;;;;;15.23;3.28;;;23.00;39.90;;;;;;10393325;28;20076;-58
2024/03/16 18:09:04;;;;;;;11.93;2.67;;;23.20;40.70;;;;;;10390206;28;20045;-57
2024/03/16 18:14:06;;;;;;;14.57;2.78;;;23.00;41.00;;;;;;10387868;28;20128;-56
2024/03/16 18:19:09;;;;;;;10.98;2.40;;;22.90;41.80;;;;;;10384825;28;20407;-58
2024/03/16 18:24:12;;;;;;;17.58;2.83;;;22.80;42.60;;;;;;10397154;28;20045;-59
2024/03/16 18:29:13;;;;;;;10.73;2.80;;;22.80;43.10;;;;;;10405995;28;20038;-58
2024/03/16 18:34:15;;;;;;;9.52;2.25;;;22.60;43.40;;;;;;10407983;28;20503;-60
2024/03/16 18:39:18;;;;;;;10.20;2.60;;;22.70;43.70;;;;;;10405866;28;20053;-56
2024/03/16 18:44:20;;;;;;;7.93;2.42;;;22.60;43.90;;;;;;10399855;28;20045;-60
2024/03/16 18:49:23;;;;;;;10.55;2.47;;;22.50;44.20;;;;;;10396380;28;20045;-57
2024/03/16 18:54:26;;;;;;;8.13;3.40;;;22.60;44.30;;;;;;10397847;28;20046;-54
2024/03/16 18:59:27;;;;;;;13.77;6.25;;;22.80;44.50;;;;;;10396866;28;20041;-59
2024/03/16 19:04:29;;;;;;;16.10;6.25;;;22.90;44.80;;;;;;10401210;28;20045;-57
2024/03/16 19:09:32;;;;;;;14.15;7.03;;;22.80;45.40;;;;;;10394844;28;20048;-57
2024/03/16 19:14:34;;;;;;;15.80;7.68;;;22.80;45.60;;;;;;10399117;28;20100;-58
2024/03/16 19:19:36;;;;;;;15.27;9.00;;;22.90;45.70;;;;;;10398082;28;20038;-55
2024/03/16 19:24:39;;;;;;;17.77;9.57;;;22.90;46.10;;;;;;10394448;28;20080;-56
2024/03/16 19:29:41;;;;;;;18.42;10.15;;;22.90;46.40;;;;;;10394767;28;20045;-54
2024/03/16 19:34:47;;;;;;;18.48;11.40;;;22.90;46.60;;;;;;10400911;28;20507;-59
2024/03/16 19:39:51;;;;;;;22.20;11.60;;;22.90;46.70;;;;;;10396392;28;20069;-57
2024/03/16 19:44:53;;;;;;;18.90;12.10;;;23.10;46.80;;;;;;10404141;28;20088;-55
2024/03/16 19:49:54;;;;;;;21.10;12.95;;;22.90;47.00;;;;;;10398425;28;20044;-54
2024/03/16 19:54:57;;;;;;;18.98;12.50;;;22.90;47.20;;;;;;10365774;28;20048;-58
2024/03/16 19:59:59;;;;;;;32.33;14.05;;;22.90;47.10;;;;;;10386003;28;20411;-56
2024/03/16 20:05:01;;;;;;;23.85;15.18;;;22.90;47.20;;;;;;10392192;28;20045;-57
2024/03/16 20:10:05;;;;;;;22.45;15.00;;;22.90;47.40;;;;;;10394059;28;20065;-53
2024/03/16 20:15:09;;;;;;;23.33;15.55;;;22.80;47.60;;;;;;10392776;28;20671;-56
2024/03/16 20:20:12;;;;;;;27.52;15.82;;;23.00;48.00;;;;;;10401349;28;20045;-58
2024/03/16 20:25:15;;;;;;;24.45;16.10;;;23.20;46.90;;;;;;10394947;28;20076;-59
2024/03/16 20:30:17;;;;;;;24.42;14.98;;;23.00;47.20;;;;;;10391199;28;20041;-56
2024/03/16 20:35:19;;;;;;;26.10;16.55;;;22.90;47.30;;;;;;10394475;28;20136;-54
2024/03/16 20:40:23;;;;;;;26.55;16.50;;;22.70;47.90;;;;;;10394827;28;20041;-55
2024/03/16 20:45:25;;;;;;;27.25;17.10;;;22.90;47.20;;;;;;10394543;28;20156;-56
2024/03/16 20:50:27;;;;;;;31.42;16.52;;;22.70;48.00;;;;;;10398372;28;20483;-57
2024/03/16 20:55:31;;;;;;;27.58;17.33;;;22.90;47.80;;;;;;10400867;28;20049;-58
2024/03/16 21:00:35;;;;;;;23.90;17.35;;;23.10;47.30;;;;;;10398693;28;20479;-55
2024/03/16 21:05:37;;;;;;;28.42;18.38;;;23.10;47.30;;;;;;10398483;28;20145;-53
2024/03/16 21:10:40;;;;;;;27.85;17.60;;;23.10;47.40;;;;;;10396873;28;20064;-55
2024/03/16 21:15:42;;;;;;;26.60;18.95;;;22.70;48.30;;;;;;10394784;28;20045;-54
2024/03/16 21:20:44;;;;;;;27.60;19.60;;;23.10;48.10;;;;;;10395178;28;20439;-52
2024/03/16 21:25:48;;;;;;;28.85;19.23;;;22.40;49.00;;;;;;10393300;28;20045;-56
2024/03/16 21:30:50;;;;;;;30.15;18.98;;;22.40;49.50;;;;;;10393740;28;20561;-57
2024/03/16 21:35:51;;;;;;;32.13;18.52;;;22.30;49.60;;;;;;10390514;28;20042;-53
2024/03/16 21:40:54;;;;;;;33.22;18.88;;;22.30;49.80;;;;;;10400328;28;20056;-59
2024/03/16 21:45:56;;;;;;;31.00;18.42;;;22.30;49.80;;;;;;10402760;28;20048;-55
2024/03/16 21:50:57;;;;;;;30.02;18.50;;;22.30;49.80;;;;;;10404968;28;20049;-59
2024/03/16 21:56:00;;;;;;;25.42;17.35;;;22.20;49.80;;;;;;10405898;28;20048;-56
2024/03/16 22:01:02;;;;;;;30.85;18.08;;;22.40;49.20;;;;;;10404644;28;20045;-58
2024/03/16 22:06:04;;;;;;;28.60;17.25;;;22.10;49.80;;;;;;10409246;28;20144;-56
2024/03/16 22:11:12;;;;;;;26.05;17.75;;;22.40;48.90;;;;;;10404186;28;20133;-55
2024/03/16 22:16:13;;;;;;;26.48;17.88;;;22.80;47.90;;;;;;10407409;28;20076;-57
2024/03/16 22:21:15;;;;;;;27.67;17.80;;;22.70;47.90;;;;;;10407709;28;20136;-56
2024/03/16 22:26:18;;;;;;;25.33;16.90;;;22.70;47.70;;;;;;10404501;28;20049;-59
2024/03/16 22:31:20;;;;;;;24.83;17.85;;;22.60;47.90;;;;;;10403328;28;20052;-53
2024/03/16 22:36:22;;;;;;;26.33;18.23;;;22.30;48.50;;;;;;10397039;28;20439;-54
2024/03/16 22:41:26;;;;;;;23.55;17.25;;;22.20;48.60;;;;;;10392680;28;20492;-57
2024/03/16 22:46:27;;;;;;;22.60;15.75;;;22.10;48.80;;;;;;10397838;28;20041;-54
2024/03/16 22:51:29;;;;;;;23.10;16.95;;;21.70;49.60;;;;;;10400570;28;20045;-57
2024/03/16 22:56:32;;;;;;;21.27;15.95;;;21.60;49.80;;;;;;10408124;28;20060;-53
2024/03/16 23:01:34;;;;;;;20.92;15.63;;;21.60;49.80;;;;;;10403252;28;20046;-56
2024/03/16 23:06:36;;;;;;;23.25;15.85;;;21.50;49.90;;;;;;10401466;28;20053;-55
2024/03/16 23:11:38;;;;;;;20.30;15.30;;;21.70;49.40;;;;;;10402909;28;20896;-55
2024/03/16 23:16:42;;;;;;;20.95;15.27;;;21.50;49.70;;;;;;10405390;28;20041;-54
2024/03/16 23:21:44;;;;;;;22.35;14.65;;;21.90;48.90;;;;;;10403953;28;20045;-55
2024/03/16 23:26:47;;;;;;;21.52;15.23;;;22.10;48.20;;;;;;10403992;28;20107;-55
2024/03/16 23:31:49;;;;;;;20.48;14.35;;;22.00;48.10;;;;;;10403092;28;20115;-58
2024/03/16 23:36:50;;;;;;;20.08;15.32;;;22.00;48.10;;;;;;10403609;28;20522;-54
2024/03/16 23:41:54;;;;;;;19.58;14.07;;;22.00;48.10;;;;;;10403710;28;20043;-57
2024/03/16 23:46:55;;;;;;;17.90;14.13;;;21.90;48.10;;;;;;10398986;28;20050;-52
2024/03/16 23:51:57;;;;;;;18.15;13.43;;;21.90;48.20;;;;;;10396765;28;20052;-55
2024/03/16 23:57:00;;;;;;;18.85;13.57;;;21.90;48.10;;;;;;10392479;28;20069;-58
